XLL weather

Allentown Queen City Municipal Airport
Allentown, Pennsylvania, United States

Public forecast

Using degrees Fahrenheit for public forecast. Weather courtesy of forecast.io.

METAR (pilot weather report)

Retrieved 2019/04/26 05:35 UTC (20 minutes ago):

KXLL 260535Z AUTO 07004KT 10SM OVC035 13/10 A2986 RMK AO2

TAF (pilot weather forecast)

Forecast is more than 12 hours old.

Closest forecast is Lehigh Valley International Airport, 5.4 nm (9.9 km) NNE. Retrieved 2019/04/25 00:42 UTC (1 day ago):

TAF KABE 252339Z 2600/2624 22005KT P6SM OVC070 FM260500 10006KT 6SM -SHRA BR SCT012 OVC025 FM260700 10008KT 6SM -SHRA BR OVC012 FM261500 16008KT P6SM -SHRA SCT012 BKN025 FM262300 18010G20KT 4SM -SHRA BR OVC025